sensor_id;sensor_type;location;lat;lon;timestamp;temperature;humidity
30973;DHT22;25423;45.624;13.790;2023-04-03T00:00:12;13.20;99.90
30973;DHT22;25423;45.624;13.790;2023-04-03T00:02:38;13.10;99.90
30973;DHT22;25423;45.624;13.790;2023-04-03T00:05:03;13.10;99.90
30973;DHT22;25423;45.624;13.790;2023-04-03T00:07:30;13.10;99.90
30973;DHT22;25423;45.624;13.790;2023-04-03T00:09:55;13.00;99.90
30973;DHT22;25423;45.624;13.790;2023-04-03T00:12:21;12.90;99.90
30973;DHT22;25423;45.624;13.790;2023-04-03T00:14:47;12.90;99.90
30973;DHT22;25423;45.624;13.790;2023-04-03T00:17:12;12.80;99.90
30973;DHT22;25423;45.624;13.790;2023-04-03T00:19:38;12.80;99.90
30973;DHT22;25423;45.624;13.790;2023-04-03T00:22:04;12.80;99.90
30973;DHT22;25423;45.624;13.790;2023-04-03T00:24:30;12.80;99.90
30973;DHT22;25423;45.624;13.790;2023-04-03T00:26:56;12.70;99.90
30973;DHT22;25423;45.624;13.790;2023-04-03T00:29:21;12.70;99.90
30973;DHT22;25423;45.624;13.790;2023-04-03T00:31:47;12.60;99.90
30973;DHT22;25423;45.624;13.790;2023-04-03T00:34:12;12.60;99.90
30973;DHT22;25423;45.624;13.790;2023-04-03T00:36:38;12.50;99.90
30973;DHT22;25423;45.624;13.790;2023-04-03T00:39:04;12.50;99.90
30973;DHT22;25423;45.624;13.790;2023-04-03T00:41:30;12.50;99.90
30973;DHT22;25423;45.624;13.790;2023-04-03T00:43:55;12.40;99.90
30973;DHT22;25423;45.624;13.790;2023-04-03T00:46:21;12.40;99.90
30973;DHT22;25423;45.624;13.790;2023-04-03T00:48:47;12.30;99.90
30973;DHT22;25423;45.624;13.790;2023-04-03T00:51:14;12.30;99.90
30973;DHT22;25423;45.624;13.790;2023-04-03T00:53:44;12.30;99.90
30973;DHT22;25423;45.624;13.790;2023-04-03T00:56:12;12.30;99.90
30973;DHT22;25423;45.624;13.790;2023-04-03T00:58:47;12.20;99.90
30973;DHT22;25423;45.624;13.790;2023-04-03T01:01:15;12.20;99.90
30973;DHT22;25423;45.624;13.790;2023-04-03T01:03:41;12.20;99.90
30973;DHT22;25423;45.624;13.790;2023-04-03T01:06:07;12.20;99.90
30973;DHT22;25423;45.624;13.790;2023-04-03T01:08:33;12.10;99.90
30973;DHT22;25423;45.624;13.790;2023-04-03T01:10:59;12.10;99.90
30973;DHT22;25423;45.624;13.790;2023-04-03T01:13:29;12.10;99.90
30973;DHT22;25423;45.624;13.790;2023-04-03T01:15:55;12.00;99.90
30973;DHT22;25423;45.624;13.790;2023-04-03T01:18:24;12.00;99.90
30973;DHT22;25423;45.624;13.790;2023-04-03T01:23:37;11.90;99.90
30973;DHT22;25423;45.624;13.790;2023-04-03T01:26:05;11.80;99.90
30973;DHT22;25423;45.624;13.790;2023-04-03T01:28:32;11.80;99.90
30973;DHT22;25423;45.624;13.790;2023-04-03T01:33:37;11.80;99.90
30973;DHT22;25423;45.624;13.790;2023-04-03T01:36:03;11.80;99.90
30973;DHT22;25423;45.624;13.790;2023-04-03T01:38:28;11.80;99.90
30973;DHT22;25423;45.624;13.790;2023-04-03T01:40:54;11.80;99.90
30973;DHT22;25423;45.624;13.790;2023-04-03T01:43:20;11.80;99.90
30973;DHT22;25423;45.624;13.790;2023-04-03T01:45:46;11.70;99.90
30973;DHT22;25423;45.624;13.790;2023-04-03T01:48:12;11.70;99.90
30973;DHT22;25423;45.624;13.790;2023-04-03T01:50:38;11.70;99.90
30973;DHT22;25423;45.624;13.790;2023-04-03T01:53:04;11.60;99.90
30973;DHT22;25423;45.624;13.790;2023-04-03T01:55:30;11.70;99.90
30973;DHT22;25423;45.624;13.790;2023-04-03T01:57:56;11.70;99.90
30973;DHT22;25423;45.624;13.790;2023-04-03T02:00:21;11.70;99.90
30973;DHT22;25423;45.624;13.790;2023-04-03T02:02:47;11.70;99.90
30973;DHT22;25423;45.624;13.790;2023-04-03T02:05:13;11.70;99.90
30973;DHT22;25423;45.624;13.790;2023-04-03T02:07:38;11.70;99.90
30973;DHT22;25423;45.624;13.790;2023-04-03T02:10:04;11.70;99.90
30973;DHT22;25423;45.624;13.790;2023-04-03T02:12:30;11.70;99.90
30973;DHT22;25423;45.624;13.790;2023-04-03T02:14:56;11.60;99.90
30973;DHT22;25423;45.624;13.790;2023-04-03T02:17:21;11.60;99.90
30973;DHT22;25423;45.624;13.790;2023-04-03T02:19:47;11.60;99.90
30973;DHT22;25423;45.624;13.790;2023-04-03T02:22:13;11.60;99.90
30973;DHT22;25423;45.624;13.790;2023-04-03T02:24:39;11.50;99.90
30973;DHT22;25423;45.624;13.790;2023-04-03T02:27:05;11.50;99.90
30973;DHT22;25423;45.624;13.790;2023-04-03T02:29:31;11.40;99.90
30973;DHT22;25423;45.624;13.790;2023-04-03T02:31:56;11.40;99.90
30973;DHT22;25423;45.624;13.790;2023-04-03T02:34:22;11.30;99.90
30973;DHT22;25423;45.624;13.790;2023-04-03T02:36:48;11.30;99.90
30973;DHT22;25423;45.624;13.790;2023-04-03T02:39:13;11.30;99.90
30973;DHT22;25423;45.624;13.790;2023-04-03T02:41:39;11.20;99.90
30973;DHT22;25423;45.624;13.790;2023-04-03T02:44:09;11.20;99.90
30973;DHT22;25423;45.624;13.790;2023-04-03T02:46:35;11.20;99.90
30973;DHT22;25423;45.624;13.790;2023-04-03T02:49:01;11.10;99.90
30973;DHT22;25423;45.624;13.790;2023-04-03T02:51:26;11.10;99.90
30973;DHT22;25423;45.624;13.790;2023-04-03T02:53:52;11.00;99.90
30973;DHT22;25423;45.624;13.790;2023-04-03T02:56:18;11.00;99.90
30973;DHT22;25423;45.624;13.790;2023-04-03T02:58:45;10.90;99.90
30973;DHT22;25423;45.624;13.790;2023-04-03T03:01:11;11.00;99.90
30973;DHT22;25423;45.624;13.790;2023-04-03T03:03:37;10.90;99.90
30973;DHT22;25423;45.624;13.790;2023-04-03T03:06:12;10.90;99.90
30973;DHT22;25423;45.624;13.790;2023-04-03T03:08:39;10.90;99.90
30973;DHT22;25423;45.624;13.790;2023-04-03T03:11:05;10.80;99.90
30973;DHT22;25423;45.624;13.790;2023-04-03T03:13:40;10.70;99.90
30973;DHT22;25423;45.624;13.790;2023-04-03T03:16:09;10.70;99.90
30973;DHT22;25423;45.624;13.790;2023-04-03T03:18:34;10.60;99.90
30973;DHT22;25423;45.624;13.790;2023-04-03T03:21:01;10.60;99.90
30973;DHT22;25423;45.624;13.790;2023-04-03T03:23:27;10.60;99.90
30973;DHT22;25423;45.624;13.790;2023-04-03T03:25:57;10.50;99.90
30973;DHT22;25423;45.624;13.790;2023-04-03T03:28:23;10.50;99.90
30973;DHT22;25423;45.624;13.790;2023-04-03T03:30:49;10.50;99.90
30973;DHT22;25423;45.624;13.790;2023-04-03T03:33:14;10.50;99.90
30973;DHT22;25423;45.624;13.790;2023-04-03T03:35:41;10.50;99.90
30973;DHT22;25423;45.624;13.790;2023-04-03T03:38:07;10.40;99.90
30973;DHT22;25423;45.624;13.790;2023-04-03T03:40:32;10.40;99.90
30973;DHT22;25423;45.624;13.790;2023-04-03T03:42:58;10.40;99.90
30973;DHT22;25423;45.624;13.790;2023-04-03T03:45:24;10.40;99.90
30973;DHT22;25423;45.624;13.790;2023-04-03T03:47:50;10.30;99.90
30973;DHT22;25423;45.624;13.790;2023-04-03T03:50:16;10.30;99.90
30973;DHT22;25423;45.624;13.790;2023-04-03T03:52:41;10.30;99.90
30973;DHT22;25423;45.624;13.790;2023-04-03T03:55:07;10.20;99.90
30973;DHT22;25423;45.624;13.790;2023-04-03T03:57:33;10.30;99.90
30973;DHT22;25423;45.624;13.790;2023-04-03T03:59:59;10.20;99.90
30973;DHT22;25423;45.624;13.790;2023-04-03T04:02:24;10.20;99.90
30973;DHT22;25423;45.624;13.790;2023-04-03T04:04:50;10.10;99.90
30973;DHT22;25423;45.624;13.790;2023-04-03T04:07:19;10.10;99.90
30973;DHT22;25423;45.624;13.790;2023-04-03T04:09:45;10.10;99.90
30973;DHT22;25423;45.624;13.790;2023-04-03T04:12:11;10.00;99.90
30973;DHT22;25423;45.624;13.790;2023-04-03T04:14:36;9.90;99.90
30973;DHT22;25423;45.624;13.790;2023-04-03T04:17:02;9.90;99.90
30973;DHT22;25423;45.624;13.790;2023-04-03T04:19:28;9.90;99.90
30973;DHT22;25423;45.624;13.790;2023-04-03T04:21:54;9.90;99.90
30973;DHT22;25423;45.624;13.790;2023-04-03T04:24:20;9.90;99.90
30973;DHT22;25423;45.624;13.790;2023-04-03T04:26:46;9.90;99.90
30973;DHT22;25423;45.624;13.790;2023-04-03T04:29:11;9.80;99.90
30973;DHT22;25423;45.624;13.790;2023-04-03T04:31:37;9.80;99.90
30973;DHT22;25423;45.624;13.790;2023-04-03T04:34:03;9.80;99.90
30973;DHT22;25423;45.624;13.790;2023-04-03T04:36:29;9.80;99.90
30973;DHT22;25423;45.624;13.790;2023-04-03T04:38:54;9.70;99.90
30973;DHT22;25423;45.624;13.790;2023-04-03T04:41:20;9.70;99.90
30973;DHT22;25423;45.624;13.790;2023-04-03T04:43:50;9.70;99.90
30973;DHT22;25423;45.624;13.790;2023-04-03T04:46:19;9.70;99.90
30973;DHT22;25423;45.624;13.790;2023-04-03T04:48:45;9.60;99.90
30973;DHT22;25423;45.624;13.790;2023-04-03T04:51:11;9.60;99.90
30973;DHT22;25423;45.624;13.790;2023-04-03T04:53:37;9.50;99.90
30973;DHT22;25423;45.624;13.790;2023-04-03T04:56:03;9.50;99.90
30973;DHT22;25423;45.624;13.790;2023-04-03T04:58:31;9.50;99.90
30973;DHT22;25423;45.624;13.790;2023-04-03T05:01:01;9.40;99.90
30973;DHT22;25423;45.624;13.790;2023-04-03T05:03:27;9.50;99.90
30973;DHT22;25423;45.624;13.790;2023-04-03T05:05:53;9.50;99.90
30973;DHT22;25423;45.624;13.790;2023-04-03T05:08:19;9.40;99.90
30973;DHT22;25423;45.624;13.790;2023-04-03T05:10:45;9.40;99.90
30973;DHT22;25423;45.624;13.790;2023-04-03T05:13:11;9.40;99.90
30973;DHT22;25423;45.624;13.790;2023-04-03T05:15:37;9.40;99.90
30973;DHT22;25423;45.624;13.790;2023-04-03T05:18:03;9.30;99.90
30973;DHT22;25423;45.624;13.790;2023-04-03T05:20:29;9.30;99.90
30973;DHT22;25423;45.624;13.790;2023-04-03T05:22:54;9.30;99.90
30973;DHT22;25423;45.624;13.790;2023-04-03T05:25:23;9.30;99.90
30973;DHT22;25423;45.624;13.790;2023-04-03T05:27:49;9.20;99.90
30973;DHT22;25423;45.624;13.790;2023-04-03T05:30:15;9.10;99.90
30973;DHT22;25423;45.624;13.790;2023-04-03T05:32:40;9.10;99.90
30973;DHT22;25423;45.624;13.790;2023-04-03T05:35:06;9.10;99.90
30973;DHT22;25423;45.624;13.790;2023-04-03T05:37:33;9.20;99.90
30973;DHT22;25423;45.624;13.790;2023-04-03T05:39:58;9.20;99.90
30973;DHT22;25423;45.624;13.790;2023-04-03T05:42:24;9.20;99.90
30973;DHT22;25423;45.624;13.790;2023-04-03T05:44:50;9.30;99.90
30973;DHT22;25423;45.624;13.790;2023-04-03T05:47:16;9.30;99.90
30973;DHT22;25423;45.624;13.790;2023-04-03T05:49:42;9.30;99.90
30973;DHT22;25423;45.624;13.790;2023-04-03T05:52:18;9.30;99.90
30973;DHT22;25423;45.624;13.790;2023-04-03T05:54:45;9.40;99.90
30973;DHT22;25423;45.624;13.790;2023-04-03T05:57:14;9.40;99.90
30973;DHT22;25423;45.624;13.790;2023-04-03T05:59:39;9.50;99.90
30973;DHT22;25423;45.624;13.790;2023-04-03T06:02:05;9.60;99.90
30973;DHT22;25423;45.624;13.790;2023-04-03T06:04:31;9.60;99.90
30973;DHT22;25423;45.624;13.790;2023-04-03T06:06:57;9.70;99.90
30973;DHT22;25423;45.624;13.790;2023-04-03T06:09:24;9.80;99.90
30973;DHT22;25423;45.624;13.790;2023-04-03T06:11:50;9.80;99.90
30973;DHT22;25423;45.624;13.790;2023-04-03T06:14:16;9.90;99.90
30973;DHT22;25423;45.624;13.790;2023-04-03T06:16:42;9.90;99.90
30973;DHT22;25423;45.624;13.790;2023-04-03T06:19:09;10.00;99.90
30973;DHT22;25423;45.624;13.790;2023-04-03T06:21:35;10.00;99.90
30973;DHT22;25423;45.624;13.790;2023-04-03T06:24:01;10.10;99.90
30973;DHT22;25423;45.624;13.790;2023-04-03T06:26:27;10.20;99.90
30973;DHT22;25423;45.624;13.790;2023-04-03T06:28:53;10.20;99.90
30973;DHT22;25423;45.624;13.790;2023-04-03T06:31:19;10.30;99.90
30973;DHT22;25423;45.624;13.790;2023-04-03T06:33:45;10.30;99.90
30973;DHT22;25423;45.624;13.790;2023-04-03T06:36:10;10.20;99.90
30973;DHT22;25423;45.624;13.790;2023-04-03T06:38:37;10.30;99.90
30973;DHT22;25423;45.624;13.790;2023-04-03T06:41:02;10.40;99.90
30973;DHT22;25423;45.624;13.790;2023-04-03T06:43:28;10.50;99.90
30973;DHT22;25423;45.624;13.790;2023-04-03T06:45:54;10.60;99.90
30973;DHT22;25423;45.624;13.790;2023-04-03T06:48:20;10.70;99.90
30973;DHT22;25423;45.624;13.790;2023-04-03T06:50:46;10.70;99.90
30973;DHT22;25423;45.624;13.790;2023-04-03T06:53:11;10.80;99.90
30973;DHT22;25423;45.624;13.790;2023-04-03T06:55:37;10.70;99.90
30973;DHT22;25423;45.624;13.790;2023-04-03T06:58:03;10.70;99.90
30973;DHT22;25423;45.624;13.790;2023-04-03T07:00:30;10.70;99.90
30973;DHT22;25423;45.624;13.790;2023-04-03T07:02:56;10.70;99.90
30973;DHT22;25423;45.624;13.790;2023-04-03T07:05:23;10.70;99.90
30973;DHT22;25423;45.624;13.790;2023-04-03T07:07:49;10.80;99.90
30973;DHT22;25423;45.624;13.790;2023-04-03T07:10:15;10.80;99.90
30973;DHT22;25423;45.624;13.790;2023-04-03T07:12:41;10.90;99.90
30973;DHT22;25423;45.624;13.790;2023-04-03T07:15:07;10.90;99.90
30973;DHT22;25423;45.624;13.790;2023-04-03T07:17:33;11.00;99.90
30973;DHT22;25423;45.624;13.790;2023-04-03T07:19:59;10.90;99.90
30973;DHT22;25423;45.624;13.790;2023-04-03T07:22:25;11.00;99.90
30973;DHT22;25423;45.624;13.790;2023-04-03T07:24:51;11.00;99.90
30973;DHT22;25423;45.624;13.790;2023-04-03T07:27:16;11.10;99.90
30973;DHT22;25423;45.624;13.790;2023-04-03T07:29:43;11.10;99.90
30973;DHT22;25423;45.624;13.790;2023-04-03T07:32:10;11.20;99.90
30973;DHT22;25423;45.624;13.790;2023-04-03T07:34:36;11.30;99.90
30973;DHT22;25423;45.624;13.790;2023-04-03T07:37:02;11.30;99.90
30973;DHT22;25423;45.624;13.790;2023-04-03T07:39:31;11.30;99.90
30973;DHT22;25423;45.624;13.790;2023-04-03T07:41:56;11.30;99.90
30973;DHT22;25423;45.624;13.790;2023-04-03T07:44:22;11.30;99.90
30973;DHT22;25423;45.624;13.790;2023-04-03T07:46:48;11.30;99.90
30973;DHT22;25423;45.624;13.790;2023-04-03T07:49:14;11.30;99.90
30973;DHT22;25423;45.624;13.790;2023-04-03T07:51:39;11.40;99.90
30973;DHT22;25423;45.624;13.790;2023-04-03T07:54:06;11.40;99.90
30973;DHT22;25423;45.624;13.790;2023-04-03T07:56:31;11.30;99.90
30973;DHT22;25423;45.624;13.790;2023-04-03T07:58:57;11.30;99.90
30973;DHT22;25423;45.624;13.790;2023-04-03T08:01:23;11.40;99.90
30973;DHT22;25423;45.624;13.790;2023-04-03T08:03:49;11.40;99.90
30973;DHT22;25423;45.624;13.790;2023-04-03T08:06:14;11.40;99.90
30973;DHT22;25423;45.624;13.790;2023-04-03T08:08:40;11.40;99.90
30973;DHT22;25423;45.624;13.790;2023-04-03T08:11:06;11.30;99.90
30973;DHT22;25423;45.624;13.790;2023-04-03T08:13:33;11.20;99.90
30973;DHT22;25423;45.624;13.790;2023-04-03T08:16:10;11.40;99.90
30973;DHT22;25423;45.624;13.790;2023-04-03T08:18:37;11.30;99.90
30973;DHT22;25423;45.624;13.790;2023-04-03T08:21:06;11.30;99.90
30973;DHT22;25423;45.624;13.790;2023-04-03T08:23:32;11.40;99.90
30973;DHT22;25423;45.624;13.790;2023-04-03T08:25:58;11.30;99.90
30973;DHT22;25423;45.624;13.790;2023-04-03T08:28:23;11.40;99.90
30973;DHT22;25423;45.624;13.790;2023-04-03T08:30:49;11.50;99.90
30973;DHT22;25423;45.624;13.790;2023-04-03T08:33:16;11.50;99.90
30973;DHT22;25423;45.624;13.790;2023-04-03T08:35:42;11.50;99.90
30973;DHT22;25423;45.624;13.790;2023-04-03T08:38:07;11.50;99.90
30973;DHT22;25423;45.624;13.790;2023-04-03T08:40:33;11.50;99.90
30973;DHT22;25423;45.624;13.790;2023-04-03T08:48:17;11.60;99.90
30973;DHT22;25423;45.624;13.790;2023-04-03T08:50:46;11.60;99.90
30973;DHT22;25423;45.624;13.790;2023-04-03T08:53:18;11.60;99.90
30973;DHT22;25423;45.624;13.790;2023-04-03T08:55:47;11.80;99.90
30973;DHT22;25423;45.624;13.790;2023-04-03T08:58:29;11.80;99.90
30973;DHT22;25423;45.624;13.790;2023-04-03T09:01:02;11.90;99.90
30973;DHT22;25423;45.624;13.790;2023-04-03T09:03:36;11.90;99.90
30973;DHT22;25423;45.624;13.790;2023-04-03T09:06:04;12.10;99.90
30973;DHT22;25423;45.624;13.790;2023-04-03T09:08:39;12.20;99.90
30973;DHT22;25423;45.624;13.790;2023-04-03T09:15:58;12.20;99.90
30973;DHT22;25423;45.624;13.790;2023-04-03T09:18:30;12.20;99.90
30973;DHT22;25423;45.624;13.790;2023-04-03T09:21:02;12.20;99.90
30973;DHT22;25423;45.624;13.790;2023-04-03T09:23:41;12.30;99.90
30973;DHT22;25423;45.624;13.790;2023-04-03T09:26:16;12.30;99.90
30973;DHT22;25423;45.624;13.790;2023-04-03T09:28:43;12.20;99.90
30973;DHT22;25423;45.624;13.790;2023-04-03T09:31:14;12.30;99.90
30973;DHT22;25423;45.624;13.790;2023-04-03T09:33:42;12.30;99.90
30973;DHT22;25423;45.624;13.790;2023-04-03T09:36:07;12.40;99.90
30973;DHT22;25423;45.624;13.790;2023-04-03T09:38:33;12.30;99.90
30973;DHT22;25423;45.624;13.790;2023-04-03T09:41:13;12.30;99.90
30973;DHT22;25423;45.624;13.790;2023-04-03T09:43:40;12.30;99.90
30973;DHT22;25423;45.624;13.790;2023-04-03T09:46:30;12.40;99.90
30973;DHT22;25423;45.624;13.790;2023-04-03T09:48:58;12.40;99.90
30973;DHT22;25423;45.624;13.790;2023-04-03T09:51:29;12.60;99.90
30973;DHT22;25423;45.624;13.790;2023-04-03T09:53:56;12.60;99.90
30973;DHT22;25423;45.624;13.790;2023-04-03T09:56:31;12.60;99.90
30973;DHT22;25423;45.624;13.790;2023-04-03T10:01:36;12.70;99.90
30973;DHT22;25423;45.624;13.790;2023-04-03T10:06:35;12.80;99.90
30973;DHT22;25423;45.624;13.790;2023-04-03T10:09:03;12.90;99.90
30973;DHT22;25423;45.624;13.790;2023-04-03T10:11:30;12.90;99.90
30973;DHT22;25423;45.624;13.790;2023-04-03T10:13:57;12.90;99.90
30973;DHT22;25423;45.624;13.790;2023-04-03T10:16:46;13.00;99.90
30973;DHT22;25423;45.624;13.790;2023-04-03T10:24:13;12.80;99.90
30973;DHT22;25423;45.624;13.790;2023-04-03T10:26:52;12.70;99.90
30973;DHT22;25423;45.624;13.790;2023-04-03T10:31:46;12.80;99.90
30973;DHT22;25423;45.624;13.790;2023-04-03T10:34:20;12.90;99.90
30973;DHT22;25423;45.624;13.790;2023-04-03T10:36:51;12.90;99.90
30973;DHT22;25423;45.624;13.790;2023-04-03T10:47:13;13.30;99.90
30973;DHT22;25423;45.624;13.790;2023-04-03T10:49:51;13.40;99.90
30973;DHT22;25423;45.624;13.790;2023-04-03T10:57:38;13.20;99.90
30973;DHT22;25423;45.624;13.790;2023-04-03T11:00:06;13.20;99.90
30973;DHT22;25423;45.624;13.790;2023-04-03T11:02:42;13.20;99.90
30973;DHT22;25423;45.624;13.790;2023-04-03T11:05:44;13.20;99.90
30973;DHT22;25423;45.624;13.790;2023-04-03T11:08:05;13.30;99.90
30973;DHT22;25423;45.624;13.790;2023-04-03T11:13:11;13.20;99.90
30973;DHT22;25423;45.624;13.790;2023-04-03T11:15:39;13.20;99.90
30973;DHT22;25423;45.624;13.790;2023-04-03T11:18:15;13.20;99.90
30973;DHT22;25423;45.624;13.790;2023-04-03T11:20:53;13.20;99.90
30973;DHT22;25423;45.624;13.790;2023-04-03T11:23:24;13.20;99.90
30973;DHT22;25423;45.624;13.790;2023-04-03T11:25:54;13.40;99.90
30973;DHT22;25423;45.624;13.790;2023-04-03T11:28:21;13.40;99.90
30973;DHT22;25423;45.624;13.790;2023-04-03T11:33:19;13.30;99.90
30973;DHT22;25423;45.624;13.790;2023-04-03T11:35:48;13.40;99.90
30973;DHT22;25423;45.624;13.790;2023-04-03T11:38:26;13.50;99.90
30973;DHT22;25423;45.624;13.790;2023-04-03T11:40:55;13.40;99.90
30973;DHT22;25423;45.624;13.790;2023-04-03T11:43:22;13.40;99.90
30973;DHT22;25423;45.624;13.790;2023-04-03T11:46:04;13.40;99.90
30973;DHT22;25423;45.624;13.790;2023-04-03T11:51:01;13.10;99.90
30973;DHT22;25423;45.624;13.790;2023-04-03T11:53:28;13.20;99.90
30973;DHT22;25423;45.624;13.790;2023-04-03T11:55:55;13.10;99.90
30973;DHT22;25423;45.624;13.790;2023-04-03T11:58:22;13.20;99.90
30973;DHT22;25423;45.624;13.790;2023-04-03T12:00:52;13.30;99.90
30973;DHT22;25423;45.624;13.790;2023-04-03T12:08:26;13.50;99.90
30973;DHT22;25423;45.624;13.790;2023-04-03T12:13:37;13.60;99.90
30973;DHT22;25423;45.624;13.790;2023-04-03T12:21:24;13.80;99.90
30973;DHT22;25423;45.624;13.790;2023-04-03T12:26:46;13.70;99.90
30973;DHT22;25423;45.624;13.790;2023-04-03T12:29:18;13.90;99.90
30973;DHT22;25423;45.624;13.790;2023-04-03T12:31:48;13.90;99.90
30973;DHT22;25423;45.624;13.790;2023-04-03T12:37:04;13.90;99.90
30973;DHT22;25423;45.624;13.790;2023-04-03T12:39:35;14.00;99.90
30973;DHT22;25423;45.624;13.790;2023-04-03T12:47:33;14.00;99.90
30973;DHT22;25423;45.624;13.790;2023-04-03T12:50:02;14.00;99.90
30973;DHT22;25423;45.624;13.790;2023-04-03T12:52:34;13.90;99.90
30973;DHT22;25423;45.624;13.790;2023-04-03T12:55:02;14.00;99.90
30973;DHT22;25423;45.624;13.790;2023-04-03T12:57:29;14.00;99.90
30973;DHT22;25423;45.624;13.790;2023-04-03T12:59:56;13.80;99.90
30973;DHT22;25423;45.624;13.790;2023-04-03T13:02:24;13.80;99.90
30973;DHT22;25423;45.624;13.790;2023-04-03T13:04:54;13.80;99.90
30973;DHT22;25423;45.624;13.790;2023-04-03T13:07:36;13.90;99.90
30973;DHT22;25423;45.624;13.790;2023-04-03T13:12:44;13.90;99.90
30973;DHT22;25423;45.624;13.790;2023-04-03T13:15:18;14.00;99.90
30973;DHT22;25423;45.624;13.790;2023-04-03T13:17:44;14.10;99.90
30973;DHT22;25423;45.624;13.790;2023-04-03T13:20:22;14.20;99.90
30973;DHT22;25423;45.624;13.790;2023-04-03T13:22:59;14.10;99.90
30973;DHT22;25423;45.624;13.790;2023-04-03T13:25:26;13.90;99.90
30973;DHT22;25423;45.624;13.790;2023-04-03T13:27:53;13.90;99.90
30973;DHT22;25423;45.624;13.790;2023-04-03T13:30:29;13.80;99.90
30973;DHT22;25423;45.624;13.790;2023-04-03T13:32:55;13.90;99.90
30973;DHT22;25423;45.624;13.790;2023-04-03T13:35:31;13.90;99.90
30973;DHT22;25423;45.624;13.790;2023-04-03T13:37:58;13.90;99.90
30973;DHT22;25423;45.624;13.790;2023-04-03T13:40:24;13.90;99.90
30973;DHT22;25423;45.624;13.790;2023-04-03T13:43:00;14.00;99.90
30973;DHT22;25423;45.624;13.790;2023-04-03T13:45:27;13.90;99.90
30973;DHT22;25423;45.624;13.790;2023-04-03T13:48:06;13.90;99.90
30973;DHT22;25423;45.624;13.790;2023-04-03T13:50:32;13.90;99.90
30973;DHT22;25423;45.624;13.790;2023-04-03T13:53:02;13.90;99.90
30973;DHT22;25423;45.624;13.790;2023-04-03T13:55:29;14.00;99.90
30973;DHT22;25423;45.624;13.790;2023-04-03T13:58:20;14.00;99.90
30973;DHT22;25423;45.624;13.790;2023-04-03T14:03:14;14.20;99.90
30973;DHT22;25423;45.624;13.790;2023-04-03T14:05:42;14.20;99.90
30973;DHT22;25423;45.624;13.790;2023-04-03T14:08:08;14.20;99.90
30973;DHT22;25423;45.624;13.790;2023-04-03T14:10:35;14.10;99.90
30973;DHT22;25423;45.624;13.790;2023-04-03T14:13:01;14.10;99.90
30973;DHT22;25423;45.624;13.790;2023-04-03T14:15:28;14.10;99.90
30973;DHT22;25423;45.624;13.790;2023-04-03T14:17:55;14.00;99.90
30973;DHT22;25423;45.624;13.790;2023-04-03T14:20:22;13.90;99.90
30973;DHT22;25423;45.624;13.790;2023-04-03T14:22:49;13.80;99.90
30973;DHT22;25423;45.624;13.790;2023-04-03T14:25:16;13.90;99.90
30973;DHT22;25423;45.624;13.790;2023-04-03T14:27:44;13.80;99.90
30973;DHT22;25423;45.624;13.790;2023-04-03T14:30:15;13.90;99.90
30973;DHT22;25423;45.624;13.790;2023-04-03T14:32:42;14.00;99.90
30973;DHT22;25423;45.624;13.790;2023-04-03T14:35:08;14.10;99.90
30973;DHT22;25423;45.624;13.790;2023-04-03T14:37:34;14.10;99.90
30973;DHT22;25423;45.624;13.790;2023-04-03T14:40:01;14.10;99.90
30973;DHT22;25423;45.624;13.790;2023-04-03T14:42:29;13.90;99.90
30973;DHT22;25423;45.624;13.790;2023-04-03T14:44:55;14.00;99.90
30973;DHT22;25423;45.624;13.790;2023-04-03T14:47:23;14.10;99.90
30973;DHT22;25423;45.624;13.790;2023-04-03T14:49:49;14.20;99.90
30973;DHT22;25423;45.624;13.790;2023-04-03T14:52:19;14.10;99.90
30973;DHT22;25423;45.624;13.790;2023-04-03T14:54:46;14.20;99.90
30973;DHT22;25423;45.624;13.790;2023-04-03T14:57:12;14.20;99.90
30973;DHT22;25423;45.624;13.790;2023-04-03T14:59:38;14.20;99.90
30973;DHT22;25423;45.624;13.790;2023-04-03T15:02:10;14.10;99.90
30973;DHT22;25423;45.624;13.790;2023-04-03T15:04:45;14.10;99.90
30973;DHT22;25423;45.624;13.790;2023-04-03T15:07:11;14.00;99.90
30973;DHT22;25423;45.624;13.790;2023-04-03T15:09:37;14.00;99.90
30973;DHT22;25423;45.624;13.790;2023-04-03T15:12:02;14.00;99.90
30973;DHT22;25423;45.624;13.790;2023-04-03T15:14:28;13.90;99.90
30973;DHT22;25423;45.624;13.790;2023-04-03T15:16:54;13.90;99.90
30973;DHT22;25423;45.624;13.790;2023-04-03T15:19:20;13.90;99.90
30973;DHT22;25423;45.624;13.790;2023-04-03T15:21:45;14.00;99.90
30973;DHT22;25423;45.624;13.790;2023-04-03T15:24:11;14.10;99.90
30973;DHT22;25423;45.624;13.790;2023-04-03T15:26:37;14.30;99.90
30973;DHT22;25423;45.624;13.790;2023-04-03T15:29:03;14.50;99.90
30973;DHT22;25423;45.624;13.790;2023-04-03T15:31:29;14.60;99.90
30973;DHT22;25423;45.624;13.790;2023-04-03T15:33:54;14.70;99.90
30973;DHT22;25423;45.624;13.790;2023-04-03T15:36:20;14.60;99.90
30973;DHT22;25423;45.624;13.790;2023-04-03T15:38:46;14.50;99.90
30973;DHT22;25423;45.624;13.790;2023-04-03T15:41:11;14.70;99.90
30973;DHT22;25423;45.624;13.790;2023-04-03T15:43:37;14.60;99.90
30973;DHT22;25423;45.624;13.790;2023-04-03T15:46:03;14.50;99.90
30973;DHT22;25423;45.624;13.790;2023-04-03T15:48:29;14.50;99.90
30973;DHT22;25423;45.624;13.790;2023-04-03T15:50:57;14.40;99.90
30973;DHT22;25423;45.624;13.790;2023-04-03T15:53:23;14.30;99.90
30973;DHT22;25423;45.624;13.790;2023-04-03T15:55:49;14.40;99.90
30973;DHT22;25423;45.624;13.790;2023-04-03T15:58:15;14.40;99.90
30973;DHT22;25423;45.624;13.790;2023-04-03T16:00:43;14.50;99.80
30973;DHT22;25423;45.624;13.790;2023-04-03T16:03:14;14.30;99.90
30973;DHT22;25423;45.624;13.790;2023-04-03T16:05:41;14.10;99.90
30973;DHT22;25423;45.624;13.790;2023-04-03T16:08:07;14.10;99.90
30973;DHT22;25423;45.624;13.790;2023-04-03T16:10:33;14.00;99.90
30973;DHT22;25423;45.624;13.790;2023-04-03T16:12:59;13.90;99.90
30973;DHT22;25423;45.624;13.790;2023-04-03T16:15:25;13.90;99.90
30973;DHT22;25423;45.624;13.790;2023-04-03T16:17:52;13.60;99.90
30973;DHT22;25423;45.624;13.790;2023-04-03T16:20:18;13.60;99.90
30973;DHT22;25423;45.624;13.790;2023-04-03T16:22:44;13.50;99.90
30973;DHT22;25423;45.624;13.790;2023-04-03T16:25:10;13.50;99.90
30973;DHT22;25423;45.624;13.790;2023-04-03T16:27:36;13.50;99.90
30973;DHT22;25423;45.624;13.790;2023-04-03T16:30:01;13.50;99.90
30973;DHT22;25423;45.624;13.790;2023-04-03T16:32:29;13.50;99.90
30973;DHT22;25423;45.624;13.790;2023-04-03T16:34:56;13.60;99.90
30973;DHT22;25423;45.624;13.790;2023-04-03T16:37:21;13.50;99.90